Time;durP1;ratioP1;P1;durP2;ratioP2;P2;SDS_P1;SDS_P2;PMS_P1;PMS_P2;Temp;Humidity;BMP_temperature;BMP_pressure;BME280_temperature;BME280_humidity;BME280_pressure;Samples;Min_cycle;Max_cycle;Signal;HPM_P1;HPM_P2
2021/04/10 00:00:57;;;;;;;;;;;18.30;37.30;;;;;;500331;237;1092;-45
2021/04/10 00:02:58;;;;;;;;;;;18.30;37.30;;;;;;500337;237;1151;-45
2021/04/10 00:05:00;;;;;;;;;;;18.30;37.30;;;;;;500283;237;1183;-45
2021/04/10 00:07:01;;;;;;;;;;;18.30;37.30;;;;;;500626;237;2124;-46
2021/04/10 00:09:02;;;;;;;;;;;18.30;37.40;;;;;;500553;237;1057;-45
2021/04/10 00:11:03;;;;;;;;;;;18.30;37.40;;;;;;500489;237;1092;-45
2021/04/10 00:13:05;;;;;;;;;;;18.20;37.40;;;;;;500497;237;1239;-45
2021/04/10 00:15:06;;;;;;;;;;;18.30;37.50;;;;;;500519;237;1034;-46
2021/04/10 00:17:07;;;;;;;;;;;18.20;37.40;;;;;;500876;237;1226;-45
2021/04/10 00:19:09;;;;;;;;;;;18.20;37.50;;;;;;500668;237;1059;-45
2021/04/10 00:21:10;;;;;;;;;;;18.20;37.60;;;;;;500390;237;1175;-45
2021/04/10 00:23:11;;;;;;;;;;;18.20;37.50;;;;;;500811;237;1061;-45
2021/04/10 00:25:12;;;;;;;;;;;18.20;37.60;;;;;;500434;237;1041;-45
2021/04/10 00:27:14;;;;;;;;;;;18.20;37.60;;;;;;500428;237;2172;-45
2021/04/10 00:29:15;;;;;;;;;;;18.10;37.60;;;;;;500540;237;1068;-45
2021/04/10 00:31:16;;;;;;;;;;;18.10;37.70;;;;;;500399;237;1232;-45
2021/04/10 00:33:17;;;;;;;;;;;18.20;37.70;;;;;;500664;237;1109;-45
2021/04/10 00:35:19;;;;;;;;;;;18.10;37.60;;;;;;500492;237;1171;-45
2021/04/10 00:37:20;;;;;;;;;;;18.10;37.70;;;;;;500777;237;1051;-45
2021/04/10 00:39:21;;;;;;;;;;;18.10;37.80;;;;;;500680;237;1115;-46
2021/04/10 00:41:23;;;;;;;;;;;18.10;37.70;;;;;;500622;237;1512;-45
2021/04/10 00:43:24;;;;;;;;;;;18.10;37.70;;;;;;500838;237;1024;-45
2021/04/10 00:45:25;;;;;;;;;;;18.00;37.70;;;;;;500493;237;1229;-45
2021/04/10 00:47:26;;;;;;;;;;;18.10;37.80;;;;;;500542;237;2136;-45
2021/04/10 00:49:28;;;;;;;;;;;18.10;37.80;;;;;;500736;237;1076;-46
2021/04/10 00:51:29;;;;;;;;;;;18.10;37.70;;;;;;500485;237;1257;-45
2021/04/10 00:53:30;;;;;;;;;;;18.20;37.60;;;;;;500363;237;961;-46
2021/04/10 00:55:32;;;;;;;;;;;18.50;37.10;;;;;;500738;237;1052;-45
2021/04/10 00:57:33;;;;;;;;;;;18.80;36.50;;;;;;500516;237;1039;-46
2021/04/10 00:59:34;;;;;;;;;;;19.00;35.90;;;;;;500644;237;1186;-46
2021/04/10 01:01:35;;;;;;;;;;;19.30;35.60;;;;;;500754;237;1075;-46
2021/04/10 01:03:37;;;;;;;;;;;19.30;35.30;;;;;;500594;237;1190;-45
2021/04/10 01:05:38;;;;;;;;;;;19.40;35.10;;;;;;500758;237;1251;-46
2021/04/10 01:07:39;;;;;;;;;;;19.50;35.00;;;;;;500383;237;2176;-46
2021/04/10 01:09:41;;;;;;;;;;;19.60;34.90;;;;;;500387;237;1034;-45
2021/04/10 01:11:42;;;;;;;;;;;19.70;34.80;;;;;;500366;237;1307;-46
2021/04/10 01:13:43;;;;;;;;;;;19.70;34.80;;;;;;500409;237;1088;-46
2021/04/10 01:15:44;;;;;;;;;;;19.70;34.70;;;;;;500526;237;1036;-45
2021/04/10 01:17:46;;;;;;;;;;;19.80;34.60;;;;;;500463;237;1162;-45
2021/04/10 01:19:47;;;;;;;;;;;19.80;34.50;;;;;;500379;237;1055;-46
2021/04/10 01:21:49;;;;;;;;;;;19.80;34.40;;;;;;500500;237;1375;-46
2021/04/10 01:23:49;;;;;;;;;;;19.90;34.30;;;;;;500534;237;1112;-46
2021/04/10 01:25:51;;;;;;;;;;;19.90;34.30;;;;;;500374;237;1122;-45
2021/04/10 01:27:52;;;;;;;;;;;20.00;34.30;;;;;;500427;237;2132;-46
2021/04/10 01:29:53;;;;;;;;;;;20.00;34.20;;;;;;500447;237;1056;-45
2021/04/10 01:31:55;;;;;;;;;;;20.00;34.10;;;;;;500822;237;1075;-46
2021/04/10 01:33:56;;;;;;;;;;;20.00;34.10;;;;;;500532;237;1026;-46
2021/04/10 01:35:57;;;;;;;;;;;20.10;34.10;;;;;;500335;237;1173;-46
2021/04/10 01:37:58;;;;;;;;;;;20.10;34.00;;;;;;500414;237;1083;-45
2021/04/10 01:40:00;;;;;;;;;;;20.20;34.00;;;;;;500412;237;1059;-46
2021/04/10 01:42:01;;;;;;;;;;;20.20;33.90;;;;;;500390;237;1177;-46
2021/04/10 01:44:02;;;;;;;;;;;20.20;33.90;;;;;;500533;237;1016;-46
2021/04/10 01:46:03;;;;;;;;;;;20.20;33.90;;;;;;500364;237;1106;-45
2021/04/10 01:48:05;;;;;;;;;;;20.20;33.90;;;;;;500589;237;2184;-46
2021/04/10 01:50:06;;;;;;;;;;;20.20;33.80;;;;;;500737;237;1034;-45
2021/04/10 01:52:07;;;;;;;;;;;20.20;33.80;;;;;;500454;237;1268;-46
2021/04/10 01:54:09;;;;;;;;;;;20.30;33.90;;;;;;500389;237;1012;-46
2021/04/10 01:56:10;;;;;;;;;;;20.30;33.90;;;;;;500709;237;1026;-46
2021/04/10 01:58:11;;;;;;;;;;;20.30;33.80;;;;;;500442;237;1010;-45
2021/04/10 02:00:12;;;;;;;;;;;20.30;33.80;;;;;;500416;237;1040;-46
2021/04/10 02:02:14;;;;;;;;;;;20.30;33.80;;;;;;500717;237;1043;-45
2021/04/10 02:04:15;;;;;;;;;;;20.40;33.80;;;;;;500378;237;1064;-45
2021/04/10 02:06:16;;;;;;;;;;;20.40;33.80;;;;;;500615;237;1167;-46
2021/04/10 02:08:18;;;;;;;;;;;20.40;33.80;;;;;;500746;237;2188;-45
2021/04/10 02:10:19;;;;;;;;;;;20.40;33.80;;;;;;500388;237;1206;-45
2021/04/10 02:12:20;;;;;;;;;;;20.40;33.70;;;;;;500428;237;1055;-46
2021/04/10 02:14:21;;;;;;;;;;;20.40;33.70;;;;;;500817;237;1012;-46
2021/04/10 02:16:23;;;;;;;;;;;20.40;33.70;;;;;;500451;237;1144;-45
2021/04/10 02:18:24;;;;;;;;;;;20.50;33.70;;;;;;500675;237;1118;-45
2021/04/10 02:20:25;;;;;;;;;;;20.50;33.70;;;;;;500425;237;1233;-45
2021/04/10 02:22:33;;;;;;;;;;;20.50;33.60;;;;;;500395;237;1184;-45
2021/04/10 02:24:28;;;;;;;;;;;20.50;33.60;;;;;;500662;237;2008;-46
2021/04/10 02:26:29;;;;;;;;;;;20.50;33.60;;;;;;500399;237;1002;-46
2021/04/10 02:28:30;;;;;;;;;;;20.50;33.50;;;;;;500543;237;2191;-46
2021/04/10 02:30:32;;;;;;;;;;;20.50;33.50;;;;;;500697;237;1038;-46
2021/04/10 02:32:33;;;;;;;;;;;20.50;33.50;;;;;;500402;237;1088;-46
2021/04/10 02:34:34;;;;;;;;;;;20.60;33.60;;;;;;500443;237;1055;-46
2021/04/10 02:36:35;;;;;;;;;;;20.60;33.60;;;;;;500431;237;1141;-46
2021/04/10 02:38:37;;;;;;;;;;;20.60;33.60;;;;;;500343;237;1047;-46
2021/04/10 02:40:38;;;;;;;;;;;20.60;33.50;;;;;;500414;237;1083;-46
2021/04/10 02:42:39;;;;;;;;;;;20.60;33.50;;;;;;500559;237;1169;-46
2021/04/10 02:44:41;;;;;;;;;;;20.60;33.50;;;;;;500520;237;1109;-46
2021/04/10 02:46:42;;;;;;;;;;;20.70;33.50;;;;;;500375;237;1243;-45
2021/04/10 02:48:43;;;;;;;;;;;20.70;33.50;;;;;;500796;237;2124;-45
2021/04/10 02:50:44;;;;;;;;;;;20.70;33.50;;;;;;500463;237;1091;-46
2021/04/10 02:52:46;;;;;;;;;;;20.70;33.50;;;;;;500651;237;1173;-46
2021/04/10 02:54:47;;;;;;;;;;;20.70;33.40;;;;;;500875;237;1063;-46
2021/04/10 02:56:48;;;;;;;;;;;20.70;33.50;;;;;;500536;237;1046;-46
2021/04/10 02:58:49;;;;;;;;;;;20.70;33.40;;;;;;500647;237;1052;-46
2021/04/10 03:00:51;;;;;;;;;;;20.70;33.40;;;;;;500613;237;1027;-46
2021/04/10 03:02:52;;;;;;;;;;;20.70;33.40;;;;;;500430;237;1121;-46
2021/04/10 03:04:53;;;;;;;;;;;20.70;33.30;;;;;;500483;237;1065;-46
2021/04/10 03:06:55;;;;;;;;;;;20.80;33.40;;;;;;500604;237;1241;-46
2021/04/10 03:08:56;;;;;;;;;;;20.80;33.40;;;;;;500432;237;2184;-46
2021/04/10 03:10:57;;;;;;;;;;;20.80;33.40;;;;;;500520;237;1549;-46
2021/04/10 03:12:59;;;;;;;;;;;20.80;33.40;;;;;;500409;237;1175;-45
2021/04/10 03:15:00;;;;;;;;;;;20.80;33.30;;;;;;500505;237;1408;-45
2021/04/10 03:17:01;;;;;;;;;;;20.80;33.30;;;;;;500511;237;1183;-46
2021/04/10 03:19:02;;;;;;;;;;;20.80;33.30;;;;;;500388;237;997;-46
2021/04/10 03:21:04;;;;;;;;;;;20.80;33.30;;;;;;500324;237;1404;-45
2021/04/10 03:23:05;;;;;;;;;;;20.80;33.30;;;;;;500621;237;1159;-46
2021/04/10 03:25:06;;;;;;;;;;;20.80;33.30;;;;;;500659;237;1058;-46
2021/04/10 03:27:07;;;;;;;;;;;20.90;33.40;;;;;;500346;237;1646;-46
2021/04/10 03:29:09;;;;;;;;;;;20.80;33.30;;;;;;500649;237;2211;-46
2021/04/10 03:31:10;;;;;;;;;;;20.80;33.30;;;;;;500693;237;1300;-46
2021/04/10 03:33:12;;;;;;;;;;;20.90;33.30;;;;;;500387;237;1336;-46
2021/04/10 03:35:13;;;;;;;;;;;20.90;33.40;;;;;;500555;237;1064;-46
2021/04/10 03:37:14;;;;;;;;;;;20.90;33.30;;;;;;500322;237;1157;-46
2021/04/10 03:39:16;;;;;;;;;;;20.90;33.30;;;;;;500448;237;1048;-46
2021/04/10 03:41:17;;;;;;;;;;;21.00;33.20;;;;;;500837;237;1264;-46
2021/04/10 03:43:18;;;;;;;;;;;21.00;33.20;;;;;;500483;237;1018;-46
2021/04/10 03:45:20;;;;;;;;;;;21.00;33.20;;;;;;500362;237;1050;-46
2021/04/10 03:47:21;;;;;;;;;;;21.00;33.20;;;;;;500395;237;1141;-46
2021/04/10 03:49:22;;;;;;;;;;;21.00;33.20;;;;;;500396;237;2195;-46
2021/04/10 03:51:24;;;;;;;;;;;21.00;33.20;;;;;;500540;237;1051;-46
2021/04/10 03:53:25;;;;;;;;;;;21.00;33.20;;;;;;500368;237;1213;-46
2021/04/10 03:55:27;;;;;;;;;;;21.00;33.10;;;;;;500478;237;1153;-46
2021/04/10 03:57:28;;;;;;;;;;;21.00;33.10;;;;;;500326;237;1060;-46
2021/04/10 03:59:29;;;;;;;;;;;21.00;33.10;;;;;;500352;237;1071;-45
2021/04/10 04:01:30;;;;;;;;;;;21.10;33.20;;;;;;500335;237;1161;-45
2021/04/10 04:03:32;;;;;;;;;;;21.00;33.10;;;;;;500397;237;1066;-46
2021/04/10 04:05:33;;;;;;;;;;;21.10;33.10;;;;;;500460;237;1071;-46
2021/04/10 04:07:34;;;;;;;;;;;21.10;33.10;;;;;;500372;237;1041;-45
2021/04/10 04:09:36;;;;;;;;;;;21.10;33.10;;;;;;500373;237;2132;-46
2021/04/10 04:11:37;;;;;;;;;;;21.10;33.10;;;;;;500483;237;1175;-46
2021/04/10 04:13:38;;;;;;;;;;;21.10;33.10;;;;;;500372;237;1058;-46
2021/04/10 04:15:39;;;;;;;;;;;21.10;33.00;;;;;;500288;237;1288;-46
2021/04/10 04:17:41;;;;;;;;;;;21.10;33.00;;;;;;500403;237;1088;-46
2021/04/10 04:19:42;;;;;;;;;;;21.10;33.10;;;;;;500572;237;1067;-46
2021/04/10 04:21:43;;;;;;;;;;;21.20;33.10;;;;;;500247;237;1148;-46
2021/04/10 04:23:44;;;;;;;;;;;21.10;33.00;;;;;;500329;237;1174;-46
2021/04/10 04:25:46;;;;;;;;;;;21.10;33.10;;;;;;500352;237;1124;-46
2021/04/10 04:27:47;;;;;;;;;;;21.20;33.10;;;;;;500474;237;1023;-46
2021/04/10 04:29:48;;;;;;;;;;;21.10;33.00;;;;;;500629;237;2152;-45
2021/04/10 04:31:49;;;;;;;;;;;21.10;33.00;;;;;;500333;237;1043;-46
2021/04/10 04:33:51;;;;;;;;;;;21.20;33.10;;;;;;500519;237;1259;-46
2021/04/10 04:35:52;;;;;;;;;;;21.20;33.10;;;;;;500403;237;1071;-45
2021/04/10 04:37:53;;;;;;;;;;;21.20;33.10;;;;;;500381;237;1063;-46
2021/04/10 04:39:55;;;;;;;;;;;21.10;33.00;;;;;;500364;237;1182;-46
2021/04/10 04:41:56;;;;;;;;;;;21.20;33.10;;;;;;500459;237;1063;-46
2021/04/10 04:43:57;;;;;;;;;;;21.20;33.10;;;;;;500471;237;1070;-46
2021/04/10 04:45:58;;;;;;;;;;;21.20;33.10;;;;;;500350;237;1065;-46
2021/04/10 04:48:00;;;;;;;;;;;21.20;33.10;;;;;;500381;237;1062;-46
2021/04/10 04:50:01;;;;;;;;;;;21.20;33.10;;;;;;500491;237;2129;-45
2021/04/10 04:52:02;;;;;;;;;;;21.20;33.10;;;;;;500348;237;1548;-46
2021/04/10 04:54:04;;;;;;;;;;;21.20;33.10;;;;;;500362;237;1167;-45
2021/04/10 04:56:05;;;;;;;;;;;21.20;33.10;;;;;;500349;237;1134;-45
2021/04/10 04:58:06;;;;;;;;;;;21.20;33.00;;;;;;500513;237;1021;-46
2021/04/10 05:00:07;;;;;;;;;;;21.20;33.10;;;;;;500904;237;1003;-46
2021/04/10 05:02:09;;;;;;;;;;;21.20;33.10;;;;;;500644;237;1197;-46
2021/04/10 05:04:11;;;;;;;;;;;21.20;33.00;;;;;;500413;237;1058;-46
2021/04/10 05:06:11;;;;;;;;;;;21.20;33.00;;;;;;500425;237;1584;-46
2021/04/10 05:08:12;;;;;;;;;;;21.20;33.00;;;;;;500437;237;1119;-45
2021/04/10 05:10:14;;;;;;;;;;;21.20;33.10;;;;;;500294;237;2199;-46
2021/04/10 05:12:15;;;;;;;;;;;21.20;33.00;;;;;;500347;237;1142;-45
2021/04/10 05:14:16;;;;;;;;;;;21.20;33.00;;;;;;500347;237;1069;-46
2021/04/10 05:16:18;;;;;;;;;;;21.20;33.10;;;;;;500286;237;1147;-45
2021/04/10 05:18:19;;;;;;;;;;;21.20;33.00;;;;;;500658;237;1298;-46
2021/04/10 05:20:20;;;;;;;;;;;21.20;33.00;;;;;;500336;237;1046;-46
2021/04/10 05:22:21;;;;;;;;;;;21.20;33.00;;;;;;500369;237;1496;-46
2021/04/10 05:24:23;;;;;;;;;;;21.20;33.00;;;;;;500385;237;1179;-46
2021/04/10 05:26:24;;;;;;;;;;;21.30;33.00;;;;;;500456;237;1676;-46
2021/04/10 05:28:25;;;;;;;;;;;21.20;33.00;;;;;;500510;237;2200;-45
2021/04/10 05:30:27;;;;;;;;;;;21.30;33.00;;;;;;500369;237;980;-46
2021/04/10 05:32:28;;;;;;;;;;;21.30;33.00;;;;;;500410;237;1532;-45
2021/04/10 05:34:29;;;;;;;;;;;21.30;33.00;;;;;;500458;237;971;-45
2021/04/10 05:36:30;;;;;;;;;;;21.30;33.00;;;;;;500382;237;1202;-45
2021/04/10 05:38:32;;;;;;;;;;;21.30;33.10;;;;;;500328;237;1020;-46
2021/04/10 05:40:33;;;;;;;;;;;21.30;33.00;;;;;;500386;237;1187;-46
2021/04/10 05:42:34;;;;;;;;;;;21.30;33.00;;;;;;500551;237;1177;-46
2021/04/10 05:44:35;;;;;;;;;;;21.30;33.10;;;;;;500522;237;1038;-46
2021/04/10 05:46:37;;;;;;;;;;;21.20;33.00;;;;;;500576;237;1343;-46
2021/04/10 05:48:38;;;;;;;;;;;21.30;33.10;;;;;;500448;237;2140;-46
2021/04/10 05:50:39;;;;;;;;;;;21.30;33.00;;;;;;500563;237;1026;-46
2021/04/10 05:52:41;;;;;;;;;;;21.30;33.00;;;;;;500620;237;1044;-46
2021/04/10 05:54:42;;;;;;;;;;;21.30;33.10;;;;;;500415;237;1162;-45
2021/04/10 05:56:43;;;;;;;;;;;21.30;33.10;;;;;;500241;237;1236;-46
2021/04/10 05:58:44;;;;;;;;;;;21.30;33.00;;;;;;500604;237;1057;-46
2021/04/10 06:00:46;;;;;;;;;;;21.30;33.00;;;;;;500290;237;1264;-45
2021/04/10 06:02:47;;;;;;;;;;;21.30;33.00;;;;;;500364;237;1025;-46
2021/04/10 06:04:48;;;;;;;;;;;21.30;33.00;;;;;;500637;237;1053;-46
2021/04/10 06:06:50;;;;;;;;;;;21.30;33.00;;;;;;500339;237;1286;-46
2021/04/10 06:08:51;;;;;;;;;;;21.30;33.10;;;;;;500484;237;2200;-46
2021/04/10 06:10:52;;;;;;;;;;;21.30;33.00;;;;;;500405;237;1180;-46
2021/04/10 06:12:53;;;;;;;;;;;21.30;32.90;;;;;;500462;237;1288;-46
2021/04/10 06:14:55;;;;;;;;;;;21.30;32.90;;;;;;500603;237;1036;-46
2021/04/10 06:16:56;;;;;;;;;;;21.30;33.00;;;;;;500488;237;1205;-46
2021/04/10 06:18:57;;;;;;;;;;;21.40;33.00;;;;;;500382;237;1051;-46
2021/04/10 06:20:59;;;;;;;;;;;21.30;32.90;;;;;;500637;237;1030;-46
2021/04/10 06:23:00;;;;;;;;;;;21.30;32.90;;;;;;500332;237;1149;-46
2021/04/10 06:25:01;;;;;;;;;;;21.40;33.00;;;;;;500289;237;1133;-46
2021/04/10 06:27:02;;;;;;;;;;;21.30;32.90;;;;;;500347;237;1149;-45
2021/04/10 06:29:04;;;;;;;;;;;21.30;33.00;;;;;;500282;237;2211;-46
2021/04/10 06:31:05;;;;;;;;;;;21.30;32.90;;;;;;500592;237;1196;-46
2021/04/10 06:33:06;;;;;;;;;;;21.30;32.90;;;;;;500415;237;1022;-46
2021/04/10 06:35:07;;;;;;;;;;;21.30;32.90;;;;;;500410;237;1106;-46
2021/04/10 06:37:09;;;;;;;;;;;21.40;32.90;;;;;;500529;237;1250;-46
2021/04/10 06:39:10;;;;;;;;;;;21.40;33.00;;;;;;500315;237;1072;-46
2021/04/10 06:41:11;;;;;;;;;;;21.40;33.00;;;;;;500380;237;1200;-46
2021/04/10 06:43:13;;;;;;;;;;;21.30;32.90;;;;;;500404;237;1034;-46
2021/04/10 06:45:14;;;;;;;;;;;21.40;33.00;;;;;;500492;237;1076;-46
2021/04/10 06:47:15;;;;;;;;;;;21.40;33.00;;;;;;500528;237;1187;-46
2021/04/10 06:49:16;;;;;;;;;;;21.40;32.90;;;;;;500297;237;2140;-46
2021/04/10 06:51:18;;;;;;;;;;;21.40;32.90;;;;;;500458;237;1338;-46
2021/04/10 06:53:19;;;;;;;;;;;21.30;32.90;;;;;;500290;237;1125;-46
2021/04/10 06:55:20;;;;;;;;;;;21.40;33.00;;;;;;500432;237;1162;-46
2021/04/10 06:57:21;;;;;;;;;;;21.40;33.00;;;;;;500285;237;1362;-46
2021/04/10 06:59:23;;;;;;;;;;;21.40;33.00;;;;;;500299;237;1113;-45
2021/04/10 07:01:24;;;;;;;;;;;21.40;32.90;;;;;;500513;238;1387;-46
2021/04/10 07:03:25;;;;;;;;;;;21.40;32.90;;;;;;500322;237;1196;-46
2021/04/10 07:05:27;;;;;;;;;;;21.40;32.90;;;;;;500497;237;1375;-46
2021/04/10 07:07:28;;;;;;;;;;;21.40;32.90;;;;;;500248;237;1246;-46
2021/04/10 07:09:29;;;;;;;;;;;21.40;32.90;;;;;;500306;237;2188;-46
2021/04/10 07:11:31;;;;;;;;;;;21.40;32.90;;;;;;500265;237;1166;-46
2021/04/10 07:13:32;;;;;;;;;;;21.40;32.80;;;;;;500358;237;1192;-46
2021/04/10 07:15:33;;;;;;;;;;;21.40;32.80;;;;;;500372;237;1181;-46
2021/04/10 07:17:35;;;;;;;;;;;21.40;32.80;;;;;;500346;237;1228;-46
2021/04/10 07:19:36;;;;;;;;;;;21.40;32.80;;;;;;500364;237;1041;-46
2021/04/10 07:21:37;;;;;;;;;;;21.40;32.80;;;;;;500371;237;1132;-46
2021/04/10 07:23:38;;;;;;;;;;;21.40;32.80;;;;;;500327;237;1037;-46
2021/04/10 07:25:40;;;;;;;;;;;21.40;32.80;;;;;;500285;237;1195;-46
2021/04/10 07:27:41;;;;;;;;;;;21.40;32.80;;;;;;500303;237;1218;-46
2021/04/10 07:29:42;;;;;;;;;;;21.40;32.90;;;;;;500377;237;2184;-46
2021/04/10 07:31:44;;;;;;;;;;;21.40;32.80;;;;;;500407;237;1152;-46
2021/04/10 07:33:45;;;;;;;;;;;21.40;32.80;;;;;;500366;237;1109;-46
2021/04/10 07:35:46;;;;;;;;;;;21.40;32.80;;;;;;500341;237;1164;-46
2021/04/10 07:37:47;;;;;;;;;;;21.40;32.80;;;;;;500322;237;1111;-46
2021/04/10 07:39:49;;;;;;;;;;;21.50;32.80;;;;;;500536;237;1064;-46
2021/04/10 07:41:50;;;;;;;;;;;21.50;32.60;;;;;;500306;237;1175;-46
2021/04/10 07:43:51;;;;;;;;;;;21.20;33.10;;;;;;500753;237;1028;-46
2021/04/10 07:45:53;;;;;;;;;;;20.70;33.90;;;;;;500668;237;1056;-46
2021/04/10 07:47:54;;;;;;;;;;;20.30;34.60;;;;;;500579;237;1116;-45
2021/04/10 07:49:55;;;;;;;;;;;20.00;35.00;;;;;;500472;237;2192;-46
2021/04/10 07:51:56;;;;;;;;;;;19.80;35.50;;;;;;500638;237;1173;-45
2021/04/10 07:53:58;;;;;;;;;;;19.70;35.80;;;;;;500347;237;1051;-46
2021/04/10 07:55:59;;;;;;;;;;;19.60;36.00;;;;;;500371;237;1172;-45
2021/04/10 07:58:00;;;;;;;;;;;19.50;36.20;;;;;;500327;237;1217;-45
2021/04/10 08:00:04;;;;;;;;;;;19.40;36.30;;;;;;500526;237;1072;-45
2021/04/10 08:02:03;;;;;;;;;;;19.30;36.40;;;;;;500311;237;1356;-45
2021/04/10 08:04:04;;;;;;;;;;;19.20;36.50;;;;;;500321;237;1094;-46
2021/04/10 08:06:05;;;;;;;;;;;19.20;36.70;;;;;;500286;237;1283;-46
2021/04/10 08:08:07;;;;;;;;;;;19.10;36.70;;;;;;500411;237;1111;-45
2021/04/10 08:10:08;;;;;;;;;;;19.10;36.80;;;;;;500480;237;2184;-45
2021/04/10 08:12:11;;;;;;;;;;;19.10;36.90;;;;;;500452;237;1170;-45
2021/04/10 08:14:10;;;;;;;;;;;19.00;36.90;;;;;;500440;237;1917;-46
2021/04/10 08:16:12;;;;;;;;;;;19.00;36.90;;;;;;500389;237;1350;-46
2021/04/10 08:18:13;;;;;;;;;;;19.00;37.00;;;;;;500389;237;1250;-46
2021/04/10 08:20:14;;;;;;;;;;;19.00;36.90;;;;;;500573;237;1052;-46
2021/04/10 08:22:16;;;;;;;;;;;18.90;37.00;;;;;;500280;237;1079;-45
2021/04/10 08:24:17;;;;;;;;;;;18.90;37.00;;;;;;500284;237;1021;-45
2021/04/10 08:26:18;;;;;;;;;;;18.90;37.10;;;;;;500311;237;1235;-46
2021/04/10 08:28:19;;;;;;;;;;;18.90;37.10;;;;;;500331;237;1025;-45
2021/04/10 08:30:21;;;;;;;;;;;18.90;37.10;;;;;;500296;237;2187;-46
2021/04/10 08:32:22;;;;;;;;;;;18.80;37.10;;;;;;500260;237;1047;-45
2021/04/10 08:34:23;;;;;;;;;;;18.80;37.30;;;;;;500382;237;1053;-46
2021/04/10 08:36:24;;;;;;;;;;;18.70;37.20;;;;;;500378;237;1234;-45
2021/04/10 08:38:27;;;;;;;;;;;18.70;37.20;;;;;;500618;237;1056;-45
2021/04/10 08:40:27;;;;;;;;;;;18.80;37.30;;;;;;500348;237;2267;-45
2021/04/10 08:42:28;;;;;;;;;;;18.70;37.20;;;;;;500459;237;1244;-45
2021/04/10 08:44:30;;;;;;;;;;;18.70;37.30;;;;;;500641;237;1060;-45
2021/04/10 08:46:31;;;;;;;;;;;18.70;37.30;;;;;;500390;237;1340;-46
2021/04/10 08:48:32;;;;;;;;;;;18.70;37.30;;;;;;500431;237;964;-45
2021/04/10 08:50:34;;;;;;;;;;;18.70;37.30;;;;;;500404;237;2136;-45
2021/04/10 08:52:35;;;;;;;;;;;18.60;37.40;;;;;;500395;237;1372;-45
2021/04/10 08:54:36;;;;;;;;;;;18.60;37.40;;;;;;500855;237;1025;-45
2021/04/10 08:56:37;;;;;;;;;;;18.60;37.40;;;;;;500516;237;1432;-45
2021/04/10 08:58:39;;;;;;;;;;;18.60;37.40;;;;;;500836;237;1092;-45
2021/04/10 09:00:40;;;;;;;;;;;18.60;37.40;;;;;;500553;237;1134;-45
2021/04/10 09:02:41;;;;;;;;;;;18.60;37.40;;;;;;500467;237;1171;-45
2021/04/10 09:04:43;;;;;;;;;;;18.50;37.40;;;;;;500713;237;1070;-45
2021/04/10 09:06:44;;;;;;;;;;;18.50;37.50;;;;;;500321;237;1172;-45
2021/04/10 09:08:45;;;;;;;;;;;18.50;37.50;;;;;;500376;237;1034;-45
2021/04/10 09:10:47;;;;;;;;;;;18.50;37.50;;;;;;500376;237;2192;-45
2021/04/10 09:12:48;;;;;;;;;;;18.50;37.50;;;;;;500322;237;1139;-45
2021/04/10 09:14:49;;;;;;;;;;;18.50;37.50;;;;;;500388;237;1081;-45
2021/04/10 09:16:51;;;;;;;;;;;18.50;37.50;;;;;;500324;237;1194;-45
2021/04/10 09:18:52;;;;;;;;;;;18.50;37.50;;;;;;500485;237;1146;-46
2021/04/10 09:20:53;;;;;;;;;;;18.50;37.50;;;;;;500314;237;1348;-45
2021/04/10 09:22:54;;;;;;;;;;;18.50;37.50;;;;;;500790;237;1038;-45
2021/04/10 09:24:56;;;;;;;;;;;18.50;37.50;;;;;;500582;237;1021;-45
2021/04/10 09:26:57;;;;;;;;;;;18.50;37.50;;;;;;500427;237;1190;-46
2021/04/10 09:28:59;;;;;;;;;;;18.40;37.50;;;;;;500508;237;1052;-45
2021/04/10 09:30:59;;;;;;;;;;;18.40;37.50;;;;;;500682;237;2188;-45
2021/04/10 09:33:01;;;;;;;;;;;18.40;37.50;;;;;;500505;237;1068;-45
2021/04/10 09:35:02;;;;;;;;;;;18.40;37.50;;;;;;500414;237;1046;-46
2021/04/10 09:37:03;;;;;;;;;;;18.40;37.60;;;;;;500457;237;1137;-45
2021/04/10 09:39:05;;;;;;;;;;;18.30;37.50;;;;;;500318;237;1105;-45
2021/04/10 09:41:06;;;;;;;;;;;18.30;37.50;;;;;;500304;237;1003;-45
2021/04/10 09:43:07;;;;;;;;;;;18.30;37.50;;;;;;500323;237;1219;-45
2021/04/10 09:45:09;;;;;;;;;;;18.30;37.50;;;;;;500388;237;1020;-45
2021/04/10 09:47:10;;;;;;;;;;;18.30;37.50;;;;;;500452;237;1028;-45
2021/04/10 09:49:11;;;;;;;;;;;18.30;37.60;;;;;;500279;237;1111;-45
2021/04/10 09:51:15;;;;;;;;;;;18.30;37.60;;;;;;500507;237;2128;-45
2021/04/10 09:53:16;;;;;;;;;;;18.30;37.60;;;;;;500344;237;1025;-45
2021/04/10 09:55:18;;;;;;;;;;;18.30;37.60;;;;;;500422;237;1067;-45
2021/04/10 09:57:19;;;;;;;;;;;18.30;37.60;;;;;;500381;237;1218;-45
2021/04/10 09:59:20;;;;;;;;;;;18.30;37.60;;;;;;500377;237;1030;-45
2021/04/10 10:01:22;;;;;;;;;;;18.30;37.60;;;;;;500703;237;1135;-45
2021/04/10 10:03:23;;;;;;;;;;;18.30;37.60;;;;;;500513;237;1064;-46
2021/04/10 10:05:24;;;;;;;;;;;18.20;37.60;;;;;;500345;237;1105;-45
2021/04/10 10:07:25;;;;;;;;;;;18.20;37.60;;;;;;500475;237;1259;-46
2021/04/10 10:09:27;;;;;;;;;;;18.20;37.60;;;;;;500340;237;1096;-45
2021/04/10 10:11:28;;;;;;;;;;;18.20;37.60;;;;;;500545;237;2208;-45
2021/04/10 10:13:29;;;;;;;;;;;18.20;37.60;;;;;;500546;237;1181;-45
2021/04/10 10:15:31;;;;;;;;;;;18.30;37.50;;;;;;500362;237;1282;-45
2021/04/10 10:17:32;;;;;;;;;;;18.30;37.50;;;;;;500295;237;1061;-45
2021/04/10 10:19:33;;;;;;;;;;;18.20;37.60;;;;;;500484;237;1220;-45
2021/04/10 10:21:34;;;;;;;;;;;18.20;37.60;;;;;;500455;237;1339;-45
2021/04/10 10:23:36;;;;;;;;;;;18.20;37.60;;;;;;500316;237;1044;-45
2021/04/10 10:25:37;;;;;;;;;;;18.20;37.60;;;;;;500422;237;1478;-46
2021/04/10 10:27:38;;;;;;;;;;;18.20;37.60;;;;;;500302;237;1243;-45
2021/04/10 10:29:40;;;;;;;;;;;18.20;37.60;;;;;;500455;237;1016;-45
2021/04/10 10:31:41;;;;;;;;;;;18.20;37.50;;;;;;500440;237;2188;-45
2021/04/10 10:33:42;;;;;;;;;;;18.20;37.50;;;;;;500594;237;1050;-45
2021/04/10 10:35:43;;;;;;;;;;;18.20;37.60;;;;;;500777;237;1050;-45
2021/04/10 10:37:45;;;;;;;;;;;18.20;37.70;;;;;;500359;237;1062;-46
2021/04/10 10:39:46;;;;;;;;;;;18.10;37.70;;;;;;500486;237;1047;-45
2021/04/10 10:41:47;;;;;;;;;;;18.10;37.70;;;;;;500598;237;1154;-45
2021/04/10 10:43:49;;;;;;;;;;;18.20;37.70;;;;;;500495;237;1190;-45
2021/04/10 10:45:50;;;;;;;;;;;18.20;37.70;;;;;;500328;237;1316;-45
2021/04/10 10:47:51;;;;;;;;;;;18.20;37.70;;;;;;500377;237;1065;-45
2021/04/10 10:49:52;;;;;;;;;;;18.10;37.70;;;;;;500506;237;1064;-45
2021/04/10 10:51:54;;;;;;;;;;;18.10;37.70;;;;;;500368;237;2141;-45
2021/04/10 10:53:55;;;;;;;;;;;18.10;37.80;;;;;;500596;237;1030;-45
2021/04/10 10:55:56;;;;;;;;;;;18.10;37.70;;;;;;500381;237;1163;-45
2021/04/10 10:57:58;;;;;;;;;;;18.10;37.80;;;;;;500446;237;1130;-45
2021/04/10 10:59:59;;;;;;;;;;;18.10;37.80;;;;;;500649;237;1065;-45
2021/04/10 11:02:00;;;;;;;;;;;18.10;37.70;;;;;;500308;237;1313;-45
2021/04/10 11:04:01;;;;;;;;;;;18.10;37.70;;;;;;500392;237;1073;-45
2021/04/10 11:06:03;;;;;;;;;;;18.10;37.60;;;;;;500468;237;1100;-45
2021/04/10 11:08:04;;;;;;;;;;;18.10;37.70;;;;;;500708;237;1042;-45
2021/04/10 11:10:05;;;;;;;;;;;18.00;37.70;;;;;;500369;237;1076;-45
2021/04/10 11:12:06;;;;;;;;;;;18.10;37.80;;;;;;500319;237;2188;-45
2021/04/10 11:14:08;;;;;;;;;;;18.10;37.70;;;;;;500539;237;1169;-45
2021/04/10 11:16:09;;;;;;;;;;;18.10;37.70;;;;;;500659;237;1317;-45
2021/04/10 11:18:10;;;;;;;;;;;18.00;37.70;;;;;;500384;237;1048;-45
2021/04/10 11:20:12;;;;;;;;;;;18.00;37.70;;;;;;500395;237;1043;-45
2021/04/10 11:22:13;;;;;;;;;;;18.00;37.70;;;;;;500261;237;1062;-45
2021/04/10 11:24:14;;;;;;;;;;;18.00;37.70;;;;;;500302;237;1079;-45
2021/04/10 11:26:15;;;;;;;;;;;18.00;37.80;;;;;;500442;237;1200;-45
2021/04/10 11:28:17;;;;;;;;;;;18.00;37.80;;;;;;500324;237;1228;-45
2021/04/10 11:30:18;;;;;;;;;;;18.00;37.80;;;;;;500668;237;1148;-45
2021/04/10 11:32:19;;;;;;;;;;;18.00;37.70;;;;;;500331;237;2117;-45
2021/04/10 11:34:20;;;;;;;;;;;18.00;37.80;;;;;;500293;237;1223;-45
2021/04/10 11:36:22;;;;;;;;;;;18.00;37.80;;;;;;500414;237;1223;-45
2021/04/10 11:38:23;;;;;;;;;;;18.00;37.70;;;;;;500693;237;1067;-45
2021/04/10 11:40:24;;;;;;;;;;;18.00;37.70;;;;;;500462;237;1037;-45
2021/04/10 11:42:26;;;;;;;;;;;18.00;37.70;;;;;;500307;237;1442;-45
2021/04/10 11:44:27;;;;;;;;;;;17.90;37.70;;;;;;500533;237;1156;-46
2021/04/10 11:46:28;;;;;;;;;;;18.00;37.80;;;;;;500248;237;1105;-46
2021/04/10 11:48:31;;;;;;;;;;;18.10;37.60;;;;;;500362;237;1122;-45
2021/04/10 11:50:31;;;;;;;;;;;18.40;37.00;;;;;;500474;237;1435;-46
2021/04/10 11:52:33;;;;;;;;;;;18.70;36.30;;;;;;500409;237;1188;-45
2021/04/10 11:54:33;;;;;;;;;;;19.00;35.80;;;;;;500316;237;2228;-46
2021/04/10 11:56:35;;;;;;;;;;;19.20;35.50;;;;;;500250;237;1206;-45